createdAt,value
2024-04-21T00:02:21.531Z,26.60
2024-04-21T00:04:49.492Z,22.20
2024-04-21T00:07:17.148Z,25.60
2024-04-21T00:09:44.973Z,28.20
2024-04-21T00:12:12.534Z,26.90
2024-04-21T00:14:40.179Z,26.50
2024-04-21T00:17:07.704Z,27.90
2024-04-21T00:19:35.474Z,25.20
2024-04-21T00:22:02.963Z,23.10
2024-04-21T00:24:31.481Z,23.20
2024-04-21T00:26:58.994Z,20.90
2024-04-21T00:29:26.508Z,20.80
2024-04-21T00:31:53.997Z,21.50
2024-04-21T00:34:21.489Z,19.70
2024-04-21T00:36:50.724Z,20.30
2024-04-21T00:39:18.296Z,19.30
2024-04-21T00:41:46.057Z,17.70
2024-04-21T00:44:13.593Z,19.60
2024-04-21T00:46:41.521Z,18.50
2024-04-21T00:49:10.434Z,17.40
2024-04-21T00:51:38.911Z,15.90
2024-04-21T00:54:07.531Z,16.70
2024-04-21T00:56:35.586Z,15.40
2024-04-21T00:59:03.604Z,15.90
2024-04-21T01:01:31.719Z,16.20
2024-04-21T01:04:00.263Z,15.80
2024-04-21T01:06:28.057Z,17.00
2024-04-21T01:08:55.618Z,14.50
2024-04-21T01:11:23.432Z,13.50
2024-04-21T01:13:51.229Z,13.50
2024-04-21T01:16:23.140Z,15.00
2024-04-21T01:18:50.699Z,15.10
2024-04-21T01:21:19.347Z,13.50
2024-04-21T01:23:46.908Z,14.40
2024-04-21T01:26:14.404Z,13.00
2024-04-21T01:28:41.833Z,13.90
2024-04-21T01:31:09.375Z,15.70
2024-04-21T01:33:36.930Z,14.80
2024-04-21T01:36:04.610Z,13.70
2024-04-21T01:38:32.220Z,14.10
2024-04-21T01:40:59.666Z,14.90
2024-04-21T01:43:27.265Z,14.20
2024-04-21T01:45:54.826Z,15.40
2024-04-21T01:48:22.412Z,13.90
2024-04-21T01:50:49.875Z,13.80
2024-04-21T01:53:17.730Z,15.10
2024-04-21T01:55:45.275Z,13.90
2024-04-21T01:58:12.893Z,12.60
2024-04-21T02:00:40.854Z,14.20
2024-04-21T02:03:08.432Z,15.10
2024-04-21T02:05:36.526Z,13.90
2024-04-21T02:08:04.363Z,15.30
2024-04-21T02:10:31.800Z,15.10
2024-04-21T02:12:59.365Z,17.10
2024-04-21T02:15:26.976Z,15.50
2024-04-21T02:17:54.510Z,15.90
2024-04-21T02:20:21.994Z,15.30
2024-04-21T02:22:49.493Z,13.60
2024-04-21T02:25:18.236Z,15.20
2024-04-21T02:27:46.216Z,14.50
2024-04-21T02:30:13.889Z,14.40
2024-04-21T02:32:41.445Z,14.00
2024-04-21T02:35:08.995Z,15.50
2024-04-21T02:37:36.539Z,15.70
2024-04-21T02:40:04.384Z,15.20
2024-04-21T02:42:31.949Z,15.60
2024-04-21T02:45:00.478Z,13.80
2024-04-21T02:47:28.076Z,12.30
2024-04-21T02:49:55.538Z,13.00
2024-04-21T02:52:23.153Z,12.00
2024-04-21T02:54:50.657Z,13.30
2024-04-21T02:57:18.352Z,14.30
2024-04-21T02:59:45.774Z,12.00
2024-04-21T03:02:13.327Z,13.50
2024-04-21T03:04:40.914Z,13.40
2024-04-21T03:07:08.596Z,12.80
2024-04-21T03:09:36.128Z,11.80
2024-04-21T03:12:03.762Z,12.30
2024-04-21T03:14:31.895Z,11.70
2024-04-21T03:16:59.453Z,11.70
2024-04-21T03:19:27.270Z,11.70
2024-04-21T03:21:55.242Z,12.60
2024-04-21T03:24:23.329Z,12.10
2024-04-21T03:26:51.137Z,12.60
2024-04-21T03:29:18.620Z,13.30
2024-04-21T03:31:46.174Z,11.70
2024-04-21T03:34:13.758Z,14.00
2024-04-21T03:36:41.295Z,12.40
2024-04-21T03:39:08.814Z,12.30
2024-04-21T03:41:36.267Z,12.40
2024-04-21T03:44:04.547Z,13.60
2024-04-21T03:46:32.076Z,10.80
2024-04-21T03:48:59.611Z,11.00
2024-04-21T03:51:27.211Z,9.40
2024-04-21T03:53:54.803Z,11.20
2024-04-21T03:56:22.304Z,10.80
2024-04-21T03:58:49.794Z,10.20
2024-04-21T04:01:17.410Z,10.90
2024-04-21T04:03:45.199Z,11.90
2024-04-21T04:06:12.747Z,10.80
2024-04-21T04:08:40.242Z,10.90
2024-04-21T04:11:07.842Z,10.50
2024-04-21T04:13:35.309Z,9.90
2024-04-21T04:16:03.003Z,10.30
2024-04-21T04:18:30.576Z,9.80
2024-04-21T04:20:58.075Z,11.10
2024-04-21T04:23:25.595Z,9.20
2024-04-21T04:25:53.127Z,9.30
2024-04-21T04:28:21.534Z,9.70
2024-04-21T04:30:49.367Z,9.70
2024-04-21T04:33:17.025Z,9.40
2024-04-21T04:35:45.535Z,7.40
2024-04-21T04:38:13.052Z,7.80
2024-04-21T04:40:40.588Z,9.90
2024-04-21T04:43:08.148Z,8.30
2024-04-21T04:45:36.391Z,8.70
2024-04-21T04:48:04.649Z,8.80
2024-04-21T04:50:32.410Z,7.20
2024-04-21T04:53:00.234Z,8.00
2024-04-21T04:55:27.904Z,7.40
2024-04-21T04:57:55.962Z,7.30
2024-04-21T05:00:23.753Z,7.30
2024-04-21T05:02:51.425Z,8.30
2024-04-21T05:05:19.212Z,8.90
2024-04-21T05:07:46.896Z,8.40
2024-04-21T05:10:15.169Z,8.00
2024-04-21T05:12:42.772Z,7.30
2024-04-21T05:15:10.337Z,7.40
2024-04-21T05:17:37.975Z,8.00
2024-04-21T05:20:06.834Z,7.10
2024-04-21T05:22:34.402Z,7.20
2024-04-21T05:25:02.040Z,7.90
2024-04-21T05:27:32.072Z,7.70
2024-04-21T05:30:00.891Z,7.50
2024-04-21T05:32:28.628Z,7.00
2024-04-21T05:34:56.248Z,9.80
2024-04-21T05:37:23.773Z,9.00
2024-04-21T05:39:52.149Z,11.20
2024-04-21T05:42:19.660Z,11.00
2024-04-21T05:44:49.578Z,13.70
2024-04-21T05:47:17.832Z,11.10
2024-04-21T05:49:46.032Z,10.40
2024-04-21T05:52:15.794Z,8.40
2024-04-21T05:54:43.491Z,9.80
2024-04-21T05:57:11.027Z,10.60
2024-04-21T05:59:38.605Z,12.10
2024-04-21T06:02:06.558Z,12.20
2024-04-21T06:04:34.239Z,11.70
2024-04-21T06:07:01.931Z,11.10
2024-04-21T06:09:29.540Z,11.10
2024-04-21T06:11:57.147Z,11.30
2024-04-21T06:14:24.648Z,12.00
2024-04-21T06:16:52.361Z,13.40
2024-04-21T06:19:21.407Z,14.30
2024-04-21T06:21:49.064Z,17.50
2024-04-21T06:24:16.681Z,15.60
2024-04-21T06:26:45.992Z,20.60
2024-04-21T06:29:15.590Z,14.40
2024-04-21T06:31:43.787Z,13.80
2024-04-21T06:34:11.523Z,14.40
2024-04-21T06:36:39.095Z,14.90
2024-04-21T06:39:06.891Z,12.80
2024-04-21T06:41:34.406Z,13.80
2024-04-21T06:44:01.926Z,14.10
2024-04-21T06:46:29.465Z,11.70
2024-04-21T06:48:57.177Z,9.70
2024-04-21T06:51:25.781Z,9.30
2024-04-21T06:53:53.332Z,15.80
2024-04-21T06:56:20.849Z,16.20
2024-04-21T06:58:48.292Z,14.40
2024-04-21T07:01:15.935Z,10.80
2024-04-21T07:03:43.749Z,9.70
2024-04-21T07:06:11.316Z,10.80
2024-04-21T07:08:38.814Z,11.50
2024-04-21T07:11:06.632Z,11.80
2024-04-21T07:13:34.343Z,9.80
2024-04-21T07:16:01.893Z,10.50
2024-04-21T07:18:29.520Z,18.10
2024-04-21T07:20:57.071Z,12.70
2024-04-21T07:23:24.584Z,11.30
2024-04-21T07:25:52.161Z,12.70
2024-04-21T07:28:19.682Z,11.50
2024-04-21T07:30:48.414Z,12.30
2024-04-21T07:33:15.968Z,10.40
2024-04-21T07:35:44.389Z,13.70
2024-04-21T07:38:11.861Z,13.60
2024-04-21T07:40:39.652Z,9.90
2024-04-21T07:43:07.126Z,10.10
2024-04-21T07:45:34.590Z,11.50
2024-04-21T07:48:02.950Z,27.30
2024-04-21T07:50:33.995Z,14.40
2024-04-21T07:53:01.462Z,13.30
2024-04-21T07:55:29.185Z,12.10
2024-04-21T07:57:56.711Z,10.80
2024-04-21T08:00:24.212Z,10.90
2024-04-21T08:02:51.748Z,10.30
2024-04-21T08:05:19.319Z,12.20
2024-04-21T08:07:46.894Z,9.80
2024-04-21T08:10:14.513Z,10.40
2024-04-21T08:12:42.001Z,9.90
2024-04-21T08:15:09.536Z,8.50
2024-04-21T08:17:37.412Z,8.10
2024-04-21T08:20:06.175Z,11.80
2024-04-21T08:22:34.292Z,12.50
2024-04-21T08:25:03.076Z,9.80
2024-04-21T08:27:30.563Z,11.50
2024-04-21T08:29:58.104Z,11.90
2024-04-21T08:32:25.747Z,9.70
2024-04-21T08:34:53.493Z,9.80
2024-04-21T08:37:24.554Z,8.80
2024-04-21T08:39:52.387Z,9.60
2024-04-21T08:42:20.013Z,9.10
2024-04-21T08:44:49.922Z,7.10
2024-04-21T08:47:17.482Z,9.20
2024-04-21T08:49:45.206Z,9.60
2024-04-21T08:52:12.734Z,9.60
2024-04-21T08:54:40.361Z,10.60
2024-04-21T08:57:08.182Z,11.40
2024-04-21T08:59:41.928Z,12.60
2024-04-21T09:02:13.345Z,15.40
2024-04-21T09:04:45.918Z,11.50
2024-04-21T09:07:14.149Z,13.60
2024-04-21T09:09:41.650Z,10.70
2024-04-21T09:12:09.299Z,10.90
2024-04-21T09:14:43.739Z,12.90
2024-04-21T09:17:11.653Z,11.50
2024-04-21T09:19:39.975Z,15.30
2024-04-21T09:22:07.569Z,10.60
2024-04-21T09:24:35.282Z,10.60
2024-04-21T09:27:02.868Z,9.90
2024-04-21T09:29:30.375Z,8.40
2024-04-21T09:31:57.990Z,11.90
2024-04-21T09:34:25.572Z,11.60
2024-04-21T09:36:56.301Z,9.10
2024-04-21T09:39:24.861Z,7.90
2024-04-21T09:41:55.370Z,8.80
2024-04-21T09:44:23.378Z,8.00
2024-04-21T09:46:51.406Z,8.80
2024-04-21T09:49:20.072Z,12.90
2024-04-21T09:51:49.502Z,10.10
2024-04-21T09:54:20.701Z,8.80
2024-04-21T09:56:53.017Z,9.50
2024-04-21T09:59:23.623Z,10.50
2024-04-21T10:03:38.898Z,12.20
2024-04-21T10:06:07.924Z,9.50
2024-04-21T10:08:37.323Z,8.70
2024-04-21T10:11:04.888Z,11.90
2024-04-21T10:13:33.105Z,8.40
2024-04-21T10:16:00.959Z,9.20
2024-04-21T10:18:28.832Z,12.50
2024-04-21T10:20:56.668Z,9.30
2024-04-21T10:23:24.238Z,7.40
2024-04-21T10:25:53.797Z,13.70
2024-04-21T10:28:28.144Z,11.10
2024-04-21T10:31:06.160Z,11.50
2024-04-21T10:33:34.632Z,13.70
2024-04-21T10:36:02.203Z,15.00
2024-04-21T10:38:29.764Z,12.80
2024-04-21T10:40:58.481Z,11.40
2024-04-21T10:43:26.922Z,11.60
2024-04-21T10:46:01.222Z,12.70
2024-04-21T10:48:28.964Z,11.60
2024-04-21T10:50:57.582Z,12.60
2024-04-21T10:53:25.389Z,12.20
2024-04-21T10:55:55.211Z,13.60
2024-04-21T10:58:23.302Z,14.20
2024-04-21T11:00:51.152Z,12.30
2024-04-21T11:03:18.846Z,11.90
2024-04-21T11:06:01.556Z,13.30
2024-04-21T11:08:29.501Z,14.60
2024-04-21T11:10:57.576Z,12.70
2024-04-21T11:13:25.341Z,12.90
2024-04-21T11:15:53.038Z,13.50
2024-04-21T11:18:20.828Z,16.90
2024-04-21T11:20:48.750Z,13.80
2024-04-21T11:23:19.948Z,12.00
2024-04-21T11:25:47.638Z,13.80
2024-04-21T11:28:17.979Z,12.20
2024-04-21T11:30:45.819Z,16.70
2024-04-21T11:33:13.405Z,13.00
2024-04-21T11:38:09.550Z,15.30
2024-04-21T11:40:40.514Z,13.70
2024-04-21T11:43:11.530Z,13.20
2024-04-21T11:45:43.444Z,12.90
2024-04-21T11:48:11.201Z,12.70
2024-04-21T11:50:39.212Z,12.70
2024-04-21T11:53:07.689Z,12.80
2024-04-21T11:55:35.893Z,13.00
2024-04-21T11:58:05.174Z,13.60
2024-04-21T12:00:32.947Z,13.40
2024-04-21T12:03:00.679Z,13.00
2024-04-21T12:05:28.337Z,14.80
2024-04-21T12:07:55.863Z,13.00
2024-04-21T12:10:23.710Z,11.00
2024-04-21T12:12:51.383Z,12.30
2024-04-21T12:15:19.814Z,11.80
2024-04-21T12:17:47.533Z,12.80
2024-04-21T12:20:15.942Z,13.90
2024-04-21T12:22:49.773Z,11.10
2024-04-21T12:25:17.518Z,12.50
2024-04-21T12:27:45.261Z,11.50
2024-04-21T12:30:13.370Z,11.20
2024-04-21T12:32:41.004Z,21.70
2024-04-21T12:35:08.500Z,22.60
2024-04-21T12:37:36.058Z,30.40
2024-04-21T12:40:03.883Z,15.70
2024-04-21T12:42:31.384Z,15.10
2024-04-21T12:44:59.003Z,13.70
2024-04-21T12:47:26.516Z,18.10
2024-04-21T12:49:54.059Z,18.30
2024-04-21T12:52:21.739Z,20.30
2024-04-21T12:54:49.179Z,17.70
2024-04-21T12:57:16.793Z,26.90
2024-04-21T12:59:46.229Z,42.00
2024-04-21T13:02:17.990Z,42.50
2024-04-21T13:04:46.191Z,34.70
2024-04-21T13:07:13.840Z,37.90
2024-04-21T13:09:41.394Z,34.00
2024-04-21T13:12:09.087Z,32.50
2024-04-21T13:14:36.908Z,15.70
2024-04-21T13:17:04.556Z,23.30
2024-04-21T13:19:32.159Z,26.30
2024-04-21T13:22:00.441Z,20.60
2024-04-21T13:24:27.992Z,17.60
2024-04-21T13:26:55.481Z,16.00
2024-04-21T13:29:23.065Z,38.00
2024-04-21T13:31:50.703Z,24.70
2024-04-21T13:34:18.716Z,27.90
2024-04-21T13:36:46.177Z,15.50
2024-04-21T13:39:13.690Z,14.10
2024-04-21T13:41:41.230Z,13.50
2024-04-21T13:44:08.678Z,18.10
2024-04-21T13:46:36.403Z,28.30
2024-04-21T13:49:04.109Z,15.10
2024-04-21T13:51:33.234Z,16.50
2024-04-21T13:54:01.769Z,19.40
2024-04-21T13:56:29.510Z,13.40
2024-04-21T13:58:57.127Z,12.90
2024-04-21T14:01:24.943Z,13.10
2024-04-21T14:03:52.605Z,14.90
2024-04-21T14:06:21.886Z,13.50
2024-04-21T14:08:50.258Z,10.30
2024-04-21T14:11:18.161Z,19.50
2024-04-21T14:13:45.933Z,18.40
2024-04-21T14:16:13.553Z,23.70
2024-04-21T14:18:41.396Z,21.20
2024-04-21T14:21:08.938Z,13.70
2024-04-21T14:23:36.373Z,22.10
2024-04-21T14:26:04.133Z,29.30
2024-04-21T14:28:33.041Z,15.30
2024-04-21T14:31:01.265Z,16.50
2024-04-21T14:33:29.133Z,12.80
2024-04-21T14:35:56.915Z,13.00
2024-04-21T14:38:24.633Z,15.40
2024-04-21T14:40:52.268Z,14.10
2024-04-21T14:43:21.485Z,23.90
2024-04-21T14:45:49.350Z,46.70
2024-04-21T14:48:18.696Z,20.00
2024-04-21T14:51:08.171Z,18.50
2024-04-21T14:53:35.666Z,32.40
2024-04-21T14:56:06.986Z,22.20
2024-04-21T14:58:34.599Z,12.30
2024-04-21T15:01:02.430Z,12.30
2024-04-21T15:03:30.136Z,11.00
2024-04-21T15:05:57.837Z,10.30
2024-04-21T15:08:25.388Z,11.20
2024-04-21T15:10:52.890Z,9.40
2024-04-21T15:13:20.600Z,8.40
2024-04-21T15:15:48.175Z,12.10
2024-04-21T15:18:15.747Z,11.70
2024-04-21T15:20:47.065Z,12.00
2024-04-21T15:23:14.694Z,11.90
2024-04-21T15:25:44.343Z,13.30
2024-04-21T15:28:12.043Z,13.50
2024-04-21T15:30:39.615Z,9.70
2024-04-21T15:33:07.216Z,11.90
2024-04-21T15:35:34.972Z,15.10
2024-04-21T15:38:02.543Z,14.30
2024-04-21T15:40:30.111Z,11.00
2024-04-21T15:42:57.752Z,11.70
2024-04-21T15:45:25.376Z,13.80
2024-04-21T15:47:52.997Z,13.80
2024-04-21T15:50:20.531Z,10.90
2024-04-21T15:52:48.099Z,10.20
2024-04-21T15:55:16.395Z,9.70
2024-04-21T15:57:43.964Z,12.50
2024-04-21T16:00:12.283Z,11.00
2024-04-21T16:02:39.989Z,9.30
2024-04-21T16:05:08.592Z,9.20
2024-04-21T16:07:36.153Z,14.60
2024-04-21T16:10:04.222Z,12.20
2024-04-21T16:12:31.773Z,12.30
2024-04-21T16:14:59.483Z,11.20
2024-04-21T16:17:27.240Z,15.70
2024-04-21T16:19:54.848Z,15.40
2024-04-21T16:22:22.360Z,13.40
2024-04-21T16:24:49.940Z,12.90
2024-04-21T16:27:17.537Z,13.70
2024-04-21T16:29:45.215Z,13.00
2024-04-21T16:32:12.683Z,18.90
2024-04-21T16:34:40.639Z,12.50
2024-04-21T16:37:09.663Z,11.00
2024-04-21T16:39:37.619Z,11.40
2024-04-21T16:42:05.589Z,11.00
2024-04-21T16:44:33.271Z,10.60
2024-04-21T16:47:01.826Z,10.20
2024-04-21T16:49:29.829Z,12.40
2024-04-21T16:51:58.362Z,10.50
2024-04-21T16:54:26.875Z,12.00
2024-04-21T16:57:06.933Z,10.50
2024-04-21T16:59:42.986Z,10.10
2024-04-21T17:02:10.726Z,11.70
2024-04-21T17:04:41.663Z,10.70
2024-04-21T17:07:10.706Z,10.80
2024-04-21T17:09:38.856Z,10.80
2024-04-21T17:12:06.638Z,14.70
2024-04-21T17:14:34.058Z,18.30
2024-04-21T17:17:01.670Z,27.30
2024-04-21T17:19:30.311Z,18.50
2024-04-21T17:21:57.989Z,20.60
2024-04-21T17:24:25.501Z,15.30
2024-04-21T17:26:53.076Z,15.50
2024-04-21T17:29:21.285Z,20.00
2024-04-21T17:31:48.799Z,28.40
2024-04-21T17:34:19.421Z,13.60
2024-04-21T17:36:47.552Z,14.50
2024-04-21T17:39:15.038Z,13.00
2024-04-21T17:41:42.558Z,11.60
2024-04-21T17:44:10.097Z,11.40
2024-04-21T17:46:38.330Z,13.70
2024-04-21T17:49:06.643Z,17.70
2024-04-21T17:51:34.439Z,17.70
2024-04-21T17:54:01.980Z,14.00
2024-04-21T17:56:29.583Z,19.70
2024-04-21T17:58:57.363Z,16.40
2024-04-21T18:01:27.535Z,15.60
2024-04-21T18:03:55.168Z,16.90
2024-04-21T18:06:22.829Z,14.50
2024-04-21T18:08:50.465Z,15.40
2024-04-21T18:11:21.109Z,17.60
2024-04-21T18:13:48.691Z,12.80
2024-04-21T18:16:16.384Z,14.50
2024-04-21T18:18:44.111Z,12.10
2024-04-21T18:21:12.588Z,18.90
2024-04-21T18:23:40.255Z,15.20
2024-04-21T18:26:07.918Z,14.40
2024-04-21T18:28:35.715Z,13.40
2024-04-21T18:31:03.563Z,14.60
2024-04-21T18:33:31.683Z,20.80
2024-04-21T18:35:59.628Z,20.60
2024-04-21T18:38:27.250Z,21.50
2024-04-21T18:40:56.386Z,20.40
2024-04-21T18:43:23.974Z,72.80
2024-04-21T18:45:51.472Z,118.10
2024-04-21T18:48:19.045Z,76.10
2024-04-21T18:50:47.493Z,56.30
2024-04-21T18:53:17.144Z,52.00
2024-04-21T18:55:44.720Z,26.40
2024-04-21T18:58:13.175Z,21.00
2024-04-21T19:00:40.990Z,11.50
2024-04-21T19:03:08.692Z,10.60
2024-04-21T19:05:42.595Z,10.50
2024-04-21T19:08:10.768Z,10.10
2024-04-21T19:10:39.325Z,9.60
2024-04-21T19:13:07.918Z,11.00
2024-04-21T19:15:35.845Z,11.30
2024-04-21T19:18:03.784Z,17.00
2024-04-21T19:20:31.795Z,16.60
2024-04-21T19:22:59.541Z,12.80
2024-04-21T19:25:28.459Z,11.10
2024-04-21T19:27:56.271Z,10.90
2024-04-21T19:30:23.814Z,17.80
2024-04-21T19:32:51.350Z,15.60
2024-04-21T19:35:18.937Z,15.00
2024-04-21T19:37:46.415Z,13.80
2024-04-21T19:40:14.026Z,10.00
2024-04-21T19:42:44.158Z,9.40
2024-04-21T19:45:11.742Z,10.20
2024-04-21T19:47:39.331Z,10.30
2024-04-21T19:50:07.214Z,10.20
2024-04-21T19:52:38.874Z,10.80
2024-04-21T19:55:07.767Z,9.80
2024-04-21T19:57:38.867Z,9.90
2024-04-21T20:00:07.968Z,9.60
2024-04-21T20:02:36.499Z,9.50
2024-04-21T20:05:05.136Z,9.90
2024-04-21T20:07:36.445Z,9.00
2024-04-21T20:10:05.105Z,10.20
2024-04-21T20:12:33.031Z,9.80
2024-04-21T20:15:19.239Z,9.50
2024-04-21T20:18:05.268Z,10.10
2024-04-21T20:20:33.016Z,9.50
2024-04-21T20:23:00.812Z,11.90
2024-04-21T20:25:28.409Z,12.00
2024-04-21T20:27:55.843Z,11.10
2024-04-21T20:30:23.363Z,11.50
2024-04-21T20:32:50.794Z,11.70
2024-04-21T20:35:18.707Z,11.10
2024-04-21T20:37:46.227Z,12.00
2024-04-21T20:40:14.399Z,10.40
2024-04-21T20:42:41.855Z,11.10
2024-04-21T20:45:09.306Z,11.80
2024-04-21T20:47:36.883Z,15.90
2024-04-21T20:50:04.648Z,17.10
2024-04-21T20:52:34.287Z,19.90
2024-04-21T20:55:01.796Z,17.70
2024-04-21T20:57:31.541Z,25.30
2024-04-21T20:59:59.208Z,16.80
2024-04-21T21:02:26.905Z,14.70
2024-04-21T21:04:54.621Z,16.00
2024-04-21T21:07:22.295Z,20.00
2024-04-21T21:09:49.918Z,17.40
2024-04-21T21:12:17.339Z,47.00
2024-04-21T21:14:44.915Z,25.70
2024-04-21T21:17:12.529Z,14.20
2024-04-21T21:19:40.232Z,12.90
2024-04-21T21:22:07.825Z,11.60
2024-04-21T21:24:35.363Z,20.10
2024-04-21T21:27:02.991Z,13.80
2024-04-21T21:29:30.524Z,12.10
2024-04-21T21:31:58.084Z,14.20
2024-04-21T21:34:26.198Z,13.90
2024-04-21T21:36:53.700Z,12.40
2024-04-21T21:39:21.221Z,12.00
2024-04-21T21:41:48.786Z,11.00
2024-04-21T21:44:16.247Z,11.00
2024-04-21T21:46:43.784Z,13.40
2024-04-21T21:49:11.338Z,10.60
2024-04-21T21:51:39.098Z,10.10
2024-04-21T21:54:06.576Z,11.10
2024-04-21T21:56:34.007Z,11.20
2024-04-21T21:59:01.567Z,11.20
2024-04-21T22:01:29.320Z,11.00
2024-04-21T22:03:57.016Z,11.60
2024-04-21T22:06:24.507Z,10.50
2024-04-21T22:08:52.088Z,10.60
2024-04-21T22:11:19.611Z,10.20
2024-04-21T22:13:48.504Z,12.10
2024-04-21T22:16:37.021Z,12.10
2024-04-21T22:19:05.054Z,11.50
2024-04-21T22:21:32.575Z,10.60
2024-04-21T22:24:00.141Z,11.10
2024-04-21T22:26:27.605Z,11.00
2024-04-21T22:28:55.288Z,10.60
2024-04-21T22:31:23.556Z,11.70
2024-04-21T22:33:51.043Z,11.90
2024-04-21T22:36:18.580Z,12.00
2024-04-21T22:38:46.074Z,10.50
2024-04-21T22:41:13.612Z,10.60
2024-04-21T22:43:41.147Z,9.90
2024-04-21T22:46:09.677Z,10.30
2024-04-21T22:48:38.266Z,9.90
2024-04-21T22:51:06.297Z,10.20
2024-04-21T22:53:34.514Z,11.10
2024-04-21T22:56:02.206Z,11.00
2024-04-21T22:58:30.036Z,10.00
2024-04-21T23:00:57.827Z,8.80
2024-04-21T23:03:25.610Z,10.70
2024-04-21T23:06:00.125Z,9.90
2024-04-21T23:08:39.623Z,11.50
2024-04-21T23:11:07.261Z,11.20
2024-04-21T23:13:34.834Z,11.70
2024-04-21T23:16:05.895Z,11.40
2024-04-21T23:18:33.533Z,10.70
2024-04-21T23:21:01.082Z,11.80
2024-04-21T23:23:28.614Z,10.40
2024-04-21T23:25:56.150Z,11.30
2024-04-21T23:28:23.807Z,11.50
2024-04-21T23:30:51.320Z,11.90
2024-04-21T23:33:18.916Z,10.80
2024-04-21T23:35:46.618Z,10.60
2024-04-21T23:38:14.196Z,11.60
2024-04-21T23:40:41.763Z,10.80
2024-04-21T23:43:09.340Z,11.50
2024-04-21T23:45:40.556Z,10.50
2024-04-21T23:48:08.254Z,11.80
2024-04-21T23:50:35.858Z,11.90
2024-04-21T23:53:03.456Z,10.30
2024-04-21T23:55:31.008Z,9.80
2024-04-21T23:57:58.537Z,11.40
